Time;durP1;ratioP1;P1;durP2;ratioP2;P2;SDS_P1;SDS_P2;PMS_P1;PMS_P2;Temp;Humidity;BMP_temperature;BMP_pressure;BME280_temperature;BME280_humidity;BME280_pressure;Samples;Min_cycle;Max_cycle;Signal;HPM_P1;HPM_P2
2022/01/07 00:00:17;;;;;;;;;;;;;;;5.02;64.22;101382.97;5081567;28;19921;-65
2022/01/07 00:02:44;;;;;;;;;;;;;;;5.05;64.07;101393.56;5088198;28;20344;-64
2022/01/07 00:05:09;;;;;;;;;;;;;;;4.98;62.28;101389.09;5092535;28;19920;-64
2022/01/07 00:07:35;;;;;;;;;;;;;;;4.97;64.15;101387.41;5094027;28;20022;-65
2022/01/07 00:10:00;;;;;;;;;;;;;;;4.98;64.42;101375.34;5085196;28;20002;-65
2022/01/07 00:12:25;;;;;;;;;;;;;;;4.96;64.77;101383.81;5087279;28;19955;-64
2022/01/07 00:14:50;;;;;;;;;;;;;;;5.00;64.69;101384.25;5094676;28;20337;-65
2022/01/07 00:17:16;;;;;;;;;;;;;;;5.04;64.76;101374.53;5085359;28;19924;-65
2022/01/07 00:19:42;;;;;;;;;;;;;;;5.07;64.47;101363.09;5095322;28;19920;-65
2022/01/07 00:22:07;;;;;;;;;;;;;;;5.02;63.72;101358.22;5089983;28;19956;-65
2022/01/07 00:24:32;;;;;;;;;;;;;;;5.00;64.16;101345.75;5086115;28;20376;-64
2022/01/07 00:26:57;;;;;;;;;;;;;;;4.99;64.48;101347.66;5087803;28;19957;-65
2022/01/07 00:29:22;;;;;;;;;;;;;;;4.96;64.53;101350.78;5094821;28;20371;-64
2022/01/07 00:31:47;;;;;;;;;;;;;;;5.02;64.99;101354.63;5081460;28;19916;-65
2022/01/07 00:34:13;;;;;;;;;;;;;;;5.00;64.77;101354.00;5078670;28;19920;-65
2022/01/07 00:36:38;;;;;;;;;;;;;;;5.00;64.77;101342.97;5079202;28;19970;-65
2022/01/07 00:39:03;;;;;;;;;;;;;;;5.00;64.60;101338.31;5084210;28;19956;-64
2022/01/07 00:41:28;;;;;;;;;;;;;;;4.96;64.89;101328.78;5085045;28;19924;-65
2022/01/07 00:43:54;;;;;;;;;;;;;;;4.96;65.09;101327.94;5090386;28;20365;-64
2022/01/07 00:46:20;;;;;;;;;;;;;;;4.94;64.67;101314.38;5097754;28;19919;-64
2022/01/07 00:48:46;;;;;;;;;;;;;;;4.90;65.14;101311.19;5086215;28;19924;-65
2022/01/07 00:51:11;;;;;;;;;;;;;;;4.87;65.32;101314.38;5085296;28;20368;-65
2022/01/07 00:53:36;;;;;;;;;;;;;;;4.91;65.10;101309.28;5095047;28;20010;-64
2022/01/07 00:56:01;;;;;;;;;;;;;;;4.91;65.04;101299.16;5090721;28;19927;-64
2022/01/07 00:58:26;;;;;;;;;;;;;;;4.90;65.14;101286.44;5086000;28;20367;-64
2022/01/07 01:00:52;;;;;;;;;;;;;;;4.88;64.85;101282.19;5092453;28;19921;-64
2022/01/07 01:03:17;;;;;;;;;;;;;;;4.84;65.07;101290.00;5089772;28;20029;-65
2022/01/07 01:05:44;;;;;;;;;;;;;;;4.83;65.00;101282.78;5085526;28;19920;-65
2022/01/07 01:08:10;;;;;;;;;;;;;;;4.87;65.69;101283.22;5090382;28;19970;-64
2022/01/07 01:10:35;;;;;;;;;;;;;;;4.88;65.19;101280.28;5075117;28;20343;-64
2022/01/07 01:13:00;;;;;;;;;;;;;;;4.87;65.21;101274.97;5096281;28;19920;-64
2022/01/07 01:15:26;;;;;;;;;;;;;;;4.88;65.11;101265.69;5096038;28;19953;-65
2022/01/07 01:17:52;;;;;;;;;;;;;;;4.88;65.10;101258.28;5103289;28;19993;-65
2022/01/07 01:20:18;;;;;;;;;;;;;;;4.85;64.62;101266.09;5095270;28;20364;-64
2022/01/07 01:22:44;;;;;;;;;;;;;;;4.81;65.02;101264.81;5086871;28;19942;-65
2022/01/07 01:25:10;;;;;;;;;;;;;;;4.82;64.74;101250.84;5088573;28;20439;-65
2022/01/07 01:27:35;;;;;;;;;;;;;;;4.77;64.66;101252.53;5088295;28;20011;-64
2022/01/07 01:30:02;;;;;;;;;;;;;;;4.79;65.12;101244.91;5083173;28;19926;-64
2022/01/07 01:32:27;;;;;;;;;;;;;;;4.75;65.30;101243.63;5094284;28;20015;-65
2022/01/07 01:34:52;;;;;;;;;;;;;;;4.75;65.36;101241.72;5096548;28;20387;-65
2022/01/07 01:37:18;;;;;;;;;;;;;;;4.72;65.07;101233.91;5091153;28;19924;-65
2022/01/07 01:39:43;;;;;;;;;;;;;;;4.72;64.74;101235.81;5103281;28;19920;-65
2022/01/07 01:42:08;;;;;;;;;;;;;;;4.72;65.00;101233.91;5093679;28;19943;-65
2022/01/07 01:44:33;;;;;;;;;;;;;;;4.71;64.83;101234.94;5091869;28;20015;-65
2022/01/07 01:46:59;;;;;;;;;;;;;;;4.76;65.31;101231.59;5082256;28;19967;-65
2022/01/07 01:49:24;;;;;;;;;;;;;;;4.77;64.68;101211.28;5101185;28;20279;-65
2022/01/07 01:51:49;;;;;;;;;;;;;;;4.76;65.29;101213.19;5096541;28;19926;-65
2022/01/07 01:54:15;;;;;;;;;;;;;;;4.80;64.90;101203.47;5086167;28;19932;-65
2022/01/07 01:56:41;;;;;;;;;;;;;;;4.83;64.93;101204.94;5085978;28;19920;-65
2022/01/07 01:59:06;;;;;;;;;;;;;;;4.81;64.53;101188.66;5094802;28;19928;-64
2022/01/07 02:01:33;;;;;;;;;;;;;;;4.81;64.95;101193.31;5089062;28;19920;-65
2022/01/07 02:03:58;;;;;;;;;;;;;;;4.85;64.93;101194.59;5089582;28;19966;-65
2022/01/07 02:06:23;;;;;;;;;;;;;;;4.90;65.05;101192.91;5090446;28;19923;-64
2022/01/07 02:08:49;;;;;;;;;;;;;;;4.90;64.78;101186.56;5092456;28;19928;-65
2022/01/07 02:11:14;;;;;;;;;;;;;;;4.91;64.76;101182.75;5092805;28;19917;-65
2022/01/07 02:13:40;;;;;;;;;;;;;;;4.88;64.70;101192.28;5086431;28;20009;-65
2022/01/07 02:16:05;;;;;;;;;;;;;;;4.88;65.13;101194.19;5090832;28;19924;-65
2022/01/07 02:18:30;;;;;;;;;;;;;;;4.91;64.95;101199.25;5083165;28;19962;-65
2022/01/07 02:20:55;;;;;;;;;;;;;;;4.89;64.96;101193.13;5092390;28;20283;-65
2022/01/07 02:23:21;;;;;;;;;;;;;;;4.91;64.73;101193.75;5092706;28;19927;-64
2022/01/07 02:25:46;;;;;;;;;;;;;;;4.91;65.08;101182.75;5092806;28;20070;-65
2022/01/07 02:28:12;;;;;;;;;;;;;;;4.89;65.13;101190.38;5090971;28;19927;-65
2022/01/07 02:30:37;;;;;;;;;;;;;;;4.86;65.28;101171.53;5096542;28;19924;-65
2022/01/07 02:33:02;;;;;;;;;;;;;;;4.81;65.42;101171.31;5094880;28;19956;-65
2022/01/07 02:35:29;;;;;;;;;;;;;;;4.78;66.05;101171.72;5087341;28;19920;-65
2022/01/07 02:37:54;;;;;;;;;;;;;;;4.82;65.87;101173.00;5098710;28;20010;-65
2022/01/07 02:40:20;;;;;;;;;;;;;;;4.85;66.01;101167.09;5092760;28;20085;-64
2022/01/07 02:42:45;;;;;;;;;;;;;;;4.85;66.00;101167.09;5092075;28;19924;-65
2022/01/07 02:45:11;;;;;;;;;;;;;;;4.86;66.19;101171.53;5094221;28;19920;-64
2022/01/07 02:47:50;;;;;;;;;;;;;;;4.87;67.03;101171.34;5102559;28;19931;-65
2022/01/07 02:50:26;;;;;;;;;;;;;;;4.82;66.43;101162.84;5089837;28;20020;-64
2022/01/07 02:52:51;;;;;;;;;;;;;;;4.82;66.43;101165.59;5088023;28;19939;-65
2022/01/07 02:55:17;;;;;;;;;;;;;;;4.82;66.42;101165.59;5085658;28;20446;-64
2022/01/07 02:57:42;;;;;;;;;;;;;;;4.84;66.71;101155.25;5093614;28;20355;-64
2022/01/07 03:00:07;;;;;;;;;;;;;;;4.85;66.48;101162.44;5089369;28;20026;-65
2022/01/07 03:02:33;;;;;;;;;;;;;;;4.82;66.65;101151.00;5090784;28;20405;-64
2022/01/07 03:04:58;;;;;;;;;;;;;;;4.79;66.70;101145.91;5088545;28;19977;-65
2022/01/07 03:07:23;;;;;;;;;;;;;;;4.80;67.16;101147.63;5090649;28;20349;-65
2022/01/07 03:09:48;;;;;;;;;;;;;;;4.82;66.96;101149.09;5093160;28;19945;-65
2022/01/07 03:12:13;;;;;;;;;;;;;;;4.84;67.44;101138.75;5098653;28;19920;-64
2022/01/07 03:14:38;;;;;;;;;;;;;;;4.83;66.71;101133.44;5092015;28;20007;-64
2022/01/07 03:17:04;;;;;;;;;;;;;;;4.83;67.11;101139.78;5097463;28;19928;-66
2022/01/07 03:19:29;;;;;;;;;;;;;;;4.83;66.88;101125.19;5090148;28;19952;-65
2022/01/07 03:21:54;;;;;;;;;;;;;;;4.84;66.88;101119.50;5080517;28;19978;-65
2022/01/07 03:24:19;;;;;;;;;;;;;;;4.80;67.22;101122.88;5084747;28;19991;-64
2022/01/07 03:26:44;;;;;;;;;;;;;;;4.74;67.03;101112.69;5088986;28;20015;-64
2022/01/07 03:29:10;;;;;;;;;;;;;;;4.75;67.11;101114.38;5088893;28;19928;-64
2022/01/07 03:31:35;;;;;;;;;;;;;;;4.69;67.33;101118.81;5090981;28;19934;-64
2022/01/07 03:34:00;;;;;;;;;;;;;;;4.66;67.30;101108.22;5085899;28;20432;-64
2022/01/07 03:36:25;;;;;;;;;;;;;;;4.69;67.18;101110.56;5086774;28;20051;-63
2022/01/07 03:38:50;;;;;;;;;;;;;;;4.68;67.32;101106.97;5087747;28;19930;-64
2022/01/07 03:41:16;;;;;;;;;;;;;;;4.67;67.53;101112.66;5087489;28;20325;-64
2022/01/07 03:43:41;;;;;;;;;;;;;;;4.64;67.89;101116.69;5092798;28;19924;-64
2022/01/07 03:46:06;;;;;;;;;;;;;;;4.62;67.58;101105.06;5089153;28;20022;-65
2022/01/07 03:48:31;;;;;;;;;;;;;;;4.62;68.13;101101.47;5087027;28;19924;-65
2022/01/07 03:50:56;;;;;;;;;;;;;;;4.60;67.98;101107.19;5087881;28;19924;-64
2022/01/07 03:53:24;;;;;;;;;;;;;;;4.58;67.83;101098.28;5078216;28;19969;-65
2022/01/07 03:55:50;;;;;;;;;;;;;;;4.60;67.76;101098.94;5088394;28;20058;-64
2022/01/07 03:58:15;;;;;;;;;;;;;;;4.61;68.71;101099.78;5085833;28;20015;-64
2022/01/07 04:00:40;;;;;;;;;;;;;;;4.57;68.48;101085.59;5086697;28;19959;-64
2022/01/07 04:03:07;;;;;;;;;;;;;;;4.58;68.30;101084.53;5080740;28;19924;-65
2022/01/07 04:05:33;;;;;;;;;;;;;;;4.60;68.39;101087.09;5085915;28;20419;-64
2022/01/07 04:07:58;;;;;;;;;;;;;;;4.58;69.35;101073.53;5097030;28;20014;-65
2022/01/07 04:10:23;;;;;;;;;;;;;;;4.53;68.63;101072.47;5090181;28;19955;-65
2022/01/07 04:12:49;;;;;;;;;;;;;;;4.56;68.69;101067.41;5084460;28;19976;-65
2022/01/07 04:15:16;;;;;;;;;;;;;;;4.57;69.23;101060.84;5093576;28;19974;-65
2022/01/07 04:17:42;;;;;;;;;;;;;;;4.51;69.31;101072.66;5088820;28;19946;-64
2022/01/07 04:20:09;;;;;;;;;;;;;;;4.49;69.01;101071.19;5086829;28;19924;-64
2022/01/07 04:22:34;;;;;;;;;;;;;;;4.46;69.09;101068.84;5093525;28;20011;-65
2022/01/07 04:25:00;;;;;;;;;;;;;;;4.49;68.97;101074.78;5086088;28;19963;-64
2022/01/07 04:27:25;;;;;;;;;;;;;;;4.51;69.08;101066.31;5087730;28;19932;-65
2022/01/07 04:29:50;;;;;;;;;;;;;;;4.54;68.91;101068.66;5086217;28;19920;-64
2022/01/07 04:32:16;;;;;;;;;;;;;;;4.58;68.85;101061.69;5090543;28;19971;-65
2022/01/07 04:34:41;;;;;;;;;;;;;;;4.62;68.87;101074.81;5076579;28;20572;-65
2022/01/07 04:37:07;;;;;;;;;;;;;;;4.65;69.06;101071.66;5088719;28;19920;-65
2022/01/07 04:39:33;;;;;;;;;;;;;;;4.67;69.10;101082.44;5084774;28;19924;-65
2022/01/07 04:41:59;;;;;;;;;;;;;;;4.68;68.86;101075.91;5078200;28;19925;-65
2022/01/07 04:44:25;;;;;;;;;;;;;;;4.71;68.90;101077.34;5088567;28;19919;-65
2022/01/07 04:46:50;;;;;;;;;;;;;;;4.72;69.14;101076.31;5086015;28;19920;-65
2022/01/07 04:49:15;;;;;;;;;;;;;;;4.70;69.68;101076.50;5080025;28;19924;-65
2022/01/07 04:51:40;;;;;;;;;;;;;;;4.70;69.38;101068.25;5082976;28;19961;-65
2022/01/07 04:54:05;;;;;;;;;;;;;;;4.72;70.46;101070.81;5082215;28;19928;-65
2022/01/07 04:56:30;;;;;;;;;;;;;;;4.66;69.91;101076.09;5085016;28;19920;-65
2022/01/07 04:58:55;;;;;;;;;;;;;;;4.66;70.06;101058.75;5091387;28;19927;-65
2022/01/07 05:01:21;;;;;;;;;;;;;;;4.67;69.69;101058.53;5097576;28;19928;-65
2022/01/07 05:03:46;;;;;;;;;;;;;;;4.71;69.66;101039.69;5096827;28;20007;-65
2022/01/07 05:06:44;;;;;;;;;;;;;;;4.76;69.89;101058.34;5092432;28;19920;-65
2022/01/07 05:08:56;;;;;;;;;;;;;;;4.78;69.99;101051.56;5089338;28;20290;-65
2022/01/07 05:11:21;;;;;;;;;;;;;;;4.79;69.92;101046.91;5093807;28;20364;-64
2022/01/07 05:13:46;;;;;;;;;;;;;;;4.80;69.79;101043.13;5097623;28;20002;-65
2022/01/07 05:16:12;;;;;;;;;;;;;;;4.75;70.32;101037.38;5080141;28;19920;-65
2022/01/07 05:18:37;;;;;;;;;;;;;;;4.73;70.42;101031.25;5088443;28;19927;-65
2022/01/07 05:21:02;;;;;;;;;;;;;;;4.71;70.00;101038.88;5094337;28;20398;-65
2022/01/07 05:23:27;;;;;;;;;;;;;;;4.72;69.81;101043.31;5080093;28;19924;-65
2022/01/07 05:25:52;;;;;;;;;;;;;;;4.74;70.04;101043.94;5086895;28;19959;-65
2022/01/07 05:28:18;;;;;;;;;;;;;;;4.78;69.78;101053.47;5088061;28;19916;-65
2022/01/07 05:30:43;;;;;;;;;;;;;;;4.81;70.01;101026.41;5083720;28;19921;-65
2022/01/07 05:33:08;;;;;;;;;;;;;;;4.82;70.03;101035.50;5096996;28;19920;-65
2022/01/07 05:35:33;;;;;;;;;;;;;;;4.81;71.18;101036.56;5093483;28;19938;-64
2022/01/07 05:37:58;;;;;;;;;;;;;;;4.81;70.07;101034.66;5096237;28;19920;-65
2022/01/07 05:40:24;;;;;;;;;;;;;;;4.86;70.26;101037.59;5085205;28;20047;-65
2022/01/07 05:42:49;;;;;;;;;;;;;;;4.86;70.34;101039.50;5085264;28;19935;-65
2022/01/07 05:45:14;;;;;;;;;;;;;;;4.86;70.33;101029.34;5082582;28;19951;-65
2022/01/07 05:47:39;;;;;;;;;;;;;;;4.91;70.07;101035.09;5091375;28;19934;-65
2022/01/07 05:50:05;;;;;;;;;;;;;;;4.96;70.38;101025.34;5086394;28;20163;-65
2022/01/07 05:52:30;;;;;;;;;;;;;;;4.97;70.74;101030.63;5080470;28;19935;-66
2022/01/07 05:54:55;;;;;;;;;;;;;;;5.00;70.71;101037.63;5087409;28;19920;-64
2022/01/07 05:57:20;;;;;;;;;;;;;;;5.00;70.40;101023.88;5092881;28;19920;-65
2022/01/07 05:59:46;;;;;;;;;;;;;;;5.01;71.00;101017.31;5096729;28;19919;-65
2022/01/07 06:02:11;;;;;;;;;;;;;;;5.00;70.19;101015.63;5089119;28;20019;-65
2022/01/07 06:04:36;;;;;;;;;;;;;;;4.96;70.81;101017.94;5092548;28;19981;-65
2022/01/07 06:07:01;;;;;;;;;;;;;;;4.89;70.65;101020.69;5089780;28;19955;-65
2022/01/07 06:09:26;;;;;;;;;;;;;;;4.91;70.45;101029.59;5100570;28;19927;-65
2022/01/07 06:11:51;;;;;;;;;;;;;;;4.94;70.64;101031.03;5098361;28;20004;-65
2022/01/07 06:14:17;;;;;;;;;;;;;;;4.98;70.37;101029.56;5091041;28;19920;-65
2022/01/07 06:16:42;;;;;;;;;;;;;;;5.01;70.70;101028.31;5086700;28;20005;-65
2022/01/07 06:19:07;;;;;;;;;;;;;;;5.02;70.57;101035.50;5088391;28;20362;-65
2022/01/07 06:21:32;;;;;;;;;;;;;;;5.04;70.45;101031.47;5095314;28;19982;-65
2022/01/07 06:23:57;;;;;;;;;;;;;;;5.05;70.85;101035.06;5093898;28;19920;-64
2022/01/07 06:26:22;;;;;;;;;;;;;;;5.07;70.13;101028.31;5084975;28;19973;-64
2022/01/07 06:28:48;;;;;;;;;;;;;;;5.11;70.36;101029.56;5082641;28;19924;-64
2022/01/07 06:31:13;;;;;;;;;;;;;;;5.15;70.73;101028.09;5087157;28;19973;-64
2022/01/07 06:33:38;;;;;;;;;;;;;;;5.17;70.47;101025.94;5094760;28;20050;-64
2022/01/07 06:36:04;;;;;;;;;;;;;;;5.20;70.37;101027.44;5094290;28;19919;-64
2022/01/07 06:38:29;;;;;;;;;;;;;;;5.20;70.58;101026.59;5079770;28;20019;-64
2022/01/07 06:40:54;;;;;;;;;;;;;;;5.18;70.89;101024.88;5081374;28;20314;-64
2022/01/07 06:43:19;;;;;;;;;;;;;;;5.15;71.24;101025.34;5087961;28;20376;-64
2022/01/07 06:45:44;;;;;;;;;;;;;;;5.14;71.32;101031.88;5087327;28;19974;-63
2022/01/07 06:48:09;;;;;;;;;;;;;;;5.14;71.05;101023.63;5095894;28;20322;-64
2022/01/07 06:50:35;;;;;;;;;;;;;;;5.14;71.31;101023.63;5103464;28;19931;-61
2022/01/07 06:53:00;;;;;;;;;;;;;;;5.15;71.65;101030.00;5087670;28;20023;-62
2022/01/07 06:55:25;;;;;;;;;;;;;;;5.14;71.31;101017.28;5082164;28;19924;-61
2022/01/07 06:57:50;;;;;;;;;;;;;;;5.15;70.74;101028.09;5082462;28;19967;-61
2022/01/07 07:00:16;;;;;;;;;;;;;;;5.16;71.40;101021.53;5086864;28;19920;-62
2022/01/07 07:02:41;;;;;;;;;;;;;;;5.16;71.82;101015.16;5079746;28;19920;-63
2022/01/07 07:05:06;;;;;;;;;;;;;;;5.14;71.46;101018.13;5096865;28;20003;-62
2022/01/07 07:07:31;;;;;;;;;;;;;;;5.17;71.21;101025.94;5083108;28;20348;-62
2022/01/07 07:09:57;;;;;;;;;;;;;;;5.18;71.24;101016.63;5087209;28;19928;-64
2022/01/07 07:12:22;;;;;;;;;;;;;;;5.21;70.92;101025.53;5084666;28;19963;-63
2022/01/07 07:14:47;;;;;;;;;;;;;;;5.22;71.22;101030.81;5081433;28;19920;-64
2022/01/07 07:17:13;;;;;;;;;;;;;;;5.24;71.39;101031.47;5091127;28;19931;-63
2022/01/07 07:19:38;;;;;;;;;;;;;;;5.27;70.96;101031.03;5092622;28;19916;-65
2022/01/07 07:22:03;;;;;;;;;;;;;;;5.27;71.13;101022.78;5091227;28;19985;-64
2022/01/07 07:24:28;;;;;;;;;;;;;;;5.27;71.05;101041.22;5084864;28;19924;-65
2022/01/07 07:26:54;;;;;;;;;;;;;;;5.27;71.40;101032.94;5085787;28;20272;-65
2022/01/07 07:29:19;;;;;;;;;;;;;;;5.29;71.01;101036.31;5090781;28;19928;-64
2022/01/07 07:31:50;;;;;;;;;;;;;;;5.28;71.63;101031.88;5083422;28;19924;-63
2022/01/07 07:36:41;;;;;;;;;;;;;;;5.28;71.61;101032.72;5080984;28;19950;-62
2022/01/07 07:39:08;;;;;;;;;;;;;;;5.30;71.57;101030.59;5083375;28;20269;-63
2022/01/07 07:41:33;;;;;;;;;;;;;;;5.33;70.79;101032.91;5084238;28;19920;-63
2022/01/07 07:43:59;;;;;;;;;;;;;;;5.34;71.44;101029.09;5086169;28;19934;-67
2022/01/07 07:46:25;;;;;;;;;;;;;;;5.35;71.57;101032.72;5085000;28;19927;-66
2022/01/07 07:48:51;;;;;;;;;;;;;;;5.39;71.37;101014.72;5085951;28;19916;-62
2022/01/07 07:51:16;;;;;;;;;;;;;;;5.44;71.11;101011.31;5089716;28;19978;-65
2022/01/07 07:53:42;;;;;;;;;;;;;;;5.43;71.43;101015.97;5086629;28;19923;-64
2022/01/07 07:56:08;;;;;;;;;;;;;;;5.38;71.68;101018.50;5093943;28;19920;-64
2022/01/07 07:58:33;;;;;;;;;;;;;;;5.36;71.44;101024.25;5089835;28;20440;-65
2022/01/07 08:00:59;;;;;;;;;;;;;;;5.39;71.44;101028.47;5090275;28;19920;-64
2022/01/07 08:03:25;;;;;;;;;;;;;;;5.38;71.53;101035.03;5087164;28;20282;-65
2022/01/07 08:05:50;;;;;;;;;;;;;;;5.39;71.59;101033.97;5086810;28;20343;-62
2022/01/07 08:08:15;;;;;;;;;;;;;;;5.40;71.94;101030.16;5094555;28;20011;-62
2022/01/07 08:10:46;;;;;;;;;;;;;;;5.43;71.35;101027.00;5090375;28;19920;-62
2022/01/07 08:18:23;;;;;;;;;;;;;;;5.45;71.58;101019.34;5087914;28;20014;-67
2022/01/07 08:20:49;;;;;;;;;;;;;;;5.46;71.48;101015.53;5078453;28;20279;-65
2022/01/07 08:23:14;;;;;;;;;;;;;;;5.49;71.74;101008.75;5081457;28;19946;-63
2022/01/07 08:25:39;;;;;;;;;;;;;;;5.51;70.89;101013.00;5084183;28;19920;-62
2022/01/07 08:28:05;;;;;;;;;;;;;;;5.52;71.16;100989.91;5086059;28;19923;-64
2022/01/07 08:30:37;;;;;;;;;;;;;;;5.53;71.59;101005.34;5087420;28;19924;-64
2022/01/07 08:35:48;;;;;;;;;;;;;;;5.54;71.77;101008.94;5085394;28;20398;-65
2022/01/07 08:38:13;;;;;;;;;;;;;;;5.53;71.11;101010.84;5086476;28;19952;-65
2022/01/07 08:40:38;;;;;;;;;;;;;;;5.54;71.28;101011.69;5084169;28;19928;-65
2022/01/07 08:43:04;;;;;;;;;;;;;;;5.56;71.45;101004.06;5082989;28;20295;-65
2022/01/07 08:45:29;;;;;;;;;;;;;;;5.55;71.63;101010.66;5082342;28;19955;-64
2022/01/07 08:47:54;;;;;;;;;;;;;;;5.54;70.90;101022.69;5081362;28;19920;-69
2022/01/07 08:50:20;;;;;;;;;;;;;;;5.56;71.55;101010.41;5079789;28;19920;-67
2022/01/07 08:52:45;;;;;;;;;;;;;;;5.57;71.41;101012.09;5096318;28;20058;-66
2022/01/07 08:55:11;;;;;;;;;;;;;;;5.58;70.94;101024.84;5084898;28;19974;-66
2022/01/07 08:57:36;;;;;;;;;;;;;;;5.56;71.58;101018.69;5095566;28;19928;-66
2022/01/07 09:00:02;;;;;;;;;;;;;;;5.58;71.94;101023.97;5089090;28;19916;-68
2022/01/07 09:02:28;;;;;;;;;;;;;;;5.58;71.62;101029.47;5092371;28;19978;-66
2022/01/07 09:04:53;;;;;;;;;;;;;;;5.59;71.51;101026.50;5083978;28;19963;-65
2022/01/07 09:07:18;;;;;;;;;;;;;;;5.61;72.00;101023.53;5083793;28;19974;-64
2022/01/07 09:09:43;;;;;;;;;;;;;;;5.60;71.82;101014.44;5088413;28;19920;-68
2022/01/07 09:12:09;;;;;;;;;;;;;;;5.61;71.42;101018.03;5089199;28;19977;-66
2022/01/07 09:14:34;;;;;;;;;;;;;;;5.65;71.38;101020.13;5080786;28;19928;-64
2022/01/07 09:16:59;;;;;;;;;;;;;;;5.68;71.98;101020.78;5091158;28;19920;-64
2022/01/07 09:19:26;;;;;;;;;;;;;;;5.70;71.62;101015.88;5087179;28;19916;-64
2022/01/07 09:21:51;;;;;;;;;;;;;;;5.66;72.54;101010.00;5093223;28;19928;-64
2022/01/07 09:24:17;;;;;;;;;;;;;;;5.63;72.49;101007.66;5086772;28;20330;-64
2022/01/07 09:26:42;;;;;;;;;;;;;;;5.61;72.09;101016.13;5077136;28;20015;-63
2022/01/07 09:29:07;;;;;;;;;;;;;;;5.64;71.69;101006.59;5080449;28;19920;-65
2022/01/07 09:31:33;;;;;;;;;;;;;;;5.64;71.85;101012.94;5085264;28;19916;-64
2022/01/07 09:33:58;;;;;;;;;;;;;;;5.62;72.28;101015.06;5086426;28;19924;-64
2022/01/07 09:36:24;;;;;;;;;;;;;;;5.62;72.37;101014.25;5103597;28;19920;-64
2022/01/07 09:38:49;;;;;;;;;;;;;;;5.64;72.21;101012.09;5097739;28;20060;-65
2022/01/07 09:41:14;;;;;;;;;;;;;;;5.64;72.40;101001.91;5088769;28;20348;-66
2022/01/07 09:43:41;;;;;;;;;;;;;;;5.70;72.07;101007.63;5085567;28;19920;-65
2022/01/07 09:46:07;;;;;;;;;;;;;;;5.73;72.16;101015.44;5087348;28;20757;-65
2022/01/07 09:48:32;;;;;;;;;;;;;;;5.75;71.84;101010.59;5092106;28;19920;-65
2022/01/07 09:50:57;;;;;;;;;;;;;;;5.76;72.62;100998.50;5089978;28;19919;-67
2022/01/07 09:53:23;;;;;;;;;;;;;;;5.77;72.36;101002.94;5094970;28;20383;-65
2022/01/07 09:55:48;;;;;;;;;;;;;;;5.83;71.63;101004.84;5096262;28;19958;-65
2022/01/07 09:58:16;;;;;;;;;;;;;;;5.86;71.97;100996.13;5092916;28;19931;-66
2022/01/07 10:00:45;;;;;;;;;;;;;;;5.92;71.69;101003.53;5097281;28;19923;-66
2022/01/07 10:03:11;;;;;;;;;;;;;;;5.91;71.85;100997.16;5085587;28;19936;-66
2022/01/07 10:05:44;;;;;;;;;;;;;;;5.94;72.06;101000.59;5090440;28;19943;-66
2022/01/07 10:08:16;;;;;;;;;;;;;;;5.93;71.93;101001.63;5098617;28;19920;-65
2022/01/07 10:10:41;;;;;;;;;;;;;;;5.90;71.73;101009.25;5085716;28;20272;-65
2022/01/07 10:13:06;;;;;;;;;;;;;;;5.88;71.91;100983.81;5092338;28;19935;-66
2022/01/07 10:15:33;;;;;;;;;;;;;;;5.90;72.20;101003.75;5084862;28;19924;-66
2022/01/07 10:18:03;;;;;;;;;;;;;;;5.90;71.77;101005.66;5095668;28;19931;-67
2022/01/07 10:20:30;;;;;;;;;;;;;;;5.91;72.27;100993.56;5085742;28;19924;-66
2022/01/07 10:22:58;;;;;;;;;;;;;;;5.95;71.98;100994.84;5095343;28;19927;-67
2022/01/07 10:25:24;;;;;;;;;;;;;;;6.01;71.90;100998.63;5091389;28;20371;-67
2022/01/07 10:27:49;;;;;;;;;;;;;;;6.04;71.60;100998.19;5086785;28;19920;-67
2022/01/07 10:30:17;;;;;;;;;;;;;;;6.09;71.86;100982.69;5086691;28;20007;-67
2022/01/07 10:32:43;;;;;;;;;;;;;;;6.20;71.85;100975.63;5084631;28;19924;-67
2022/01/07 10:35:15;;;;;;;;;;;;;;;6.37;72.01;100975.97;5090958;28;19946;-66
2022/01/07 10:37:49;;;;;;;;;;;;;;;6.52;70.53;100979.22;5089583;28;19926;-66
2022/01/07 10:40:31;;;;;;;;;;;;;;;6.63;70.97;100981.25;5087686;28;20267;-66
2022/01/07 10:43:13;;;;;;;;;;;;;;;6.78;70.78;100985.59;5090656;28;20345;-66
2022/01/07 10:45:39;;;;;;;;;;;;;;;6.92;70.63;100978.03;5084490;28;19926;-67
2022/01/07 10:48:08;;;;;;;;;;;;;;;7.02;71.29;100968.19;5084121;28;19921;-68
2022/01/07 10:50:37;;;;;;;;;;;;;;;7.13;70.29;100967.44;5087903;28;19990;-68
2022/01/07 10:53:13;;;;;;;;;;;;;;;7.21;70.50;100969.06;5096833;28;19920;-67
2022/01/07 10:55:38;;;;;;;;;;;;;;;7.29;70.79;100970.69;5079884;28;19920;-67
2022/01/07 10:58:04;;;;;;;;;;;;;;;7.35;70.69;100964.28;5092273;28;19920;-67
2022/01/07 11:00:35;;;;;;;;;;;;;;;7.30;69.95;100961.31;5082708;28;20342;-68
2022/01/07 11:03:00;;;;;;;;;;;;;;;7.25;70.42;100952.91;5084334;28;19920;-68
2022/01/07 11:05:25;;;;;;;;;;;;;;;7.21;70.30;100968.22;5088855;28;20446;-67
2022/01/07 11:07:51;;;;;;;;;;;;;;;7.18;70.34;100957.63;5094625;28;20354;-67
2022/01/07 11:10:16;;;;;;;;;;;;;;;7.21;70.37;100951.66;5085472;28;19916;-67
2022/01/07 11:12:42;;;;;;;;;;;;;;;7.24;70.35;100957.56;5079955;28;19931;-68
2022/01/07 11:15:09;;;;;;;;;;;;;;;7.26;70.83;100960.94;5083252;28;19951;-66
2022/01/07 11:17:35;;;;;;;;;;;;;;;7.25;70.38;100964.78;5087080;28;19924;-67
2022/01/07 11:20:01;;;;;;;;;;;;;;;7.23;70.43;100955.03;5087226;28;19926;-64
2022/01/07 11:22:27;;;;;;;;;;;;;;;7.22;70.46;100964.38;5085707;28;19928;-64
2022/01/07 11:24:59;;;;;;;;;;;;;;;7.19;70.20;100962.94;5086298;28;20014;-64
2022/01/07 11:27:26;;;;;;;;;;;;;;;7.13;70.22;100959.16;5087400;28;19920;-64
2022/01/07 11:29:53;;;;;;;;;;;;;;;7.08;69.92;100963.69;5087996;28;20323;-63
2022/01/07 11:32:25;;;;;;;;;;;;;;;7.04;70.89;100956.94;5084976;28;19972;-62
2022/01/07 11:34:50;;;;;;;;;;;;;;;7.04;70.31;100967.97;5085073;28;19920;-63
2022/01/07 11:37:34;;;;;;;;;;;;;;;7.03;70.53;100964.34;5084637;28;20446;-67
2022/01/07 11:39:59;;;;;;;;;;;;;;;7.04;70.16;100967.97;5078876;28;19994;-64
2022/01/07 11:42:38;;;;;;;;;;;;;;;7.03;70.24;100972.63;5084206;28;19920;-64
2022/01/07 11:45:23;;;;;;;;;;;;;;;7.03;70.42;100961.59;5085433;28;19989;-63
2022/01/07 11:47:49;;;;;;;;;;;;;;;7.06;70.10;100958.38;5083220;28;20007;-63
2022/01/07 11:50:14;;;;;;;;;;;;;;;7.09;70.69;100959.84;5080104;28;19973;-67
2022/01/07 11:52:39;;;;;;;;;;;;;;;7.07;69.92;100962.84;5086630;28;19925;-66
2022/01/07 11:55:21;;;;;;;;;;;;;;;7.07;70.53;100953.69;5078466;28;19987;-67
2022/01/07 11:57:52;;;;;;;;;;;;;;;7.06;70.09;100952.88;5089966;28;20377;-66
2022/01/07 12:00:35;;;;;;;;;;;;;;;7.05;70.65;100953.94;5089748;28;19924;-67
2022/01/07 12:03:01;;;;;;;;;;;;;;;7.06;69.77;100949.25;5080906;28;19930;-69
2022/01/07 12:05:30;;;;;;;;;;;;;;;7.06;69.90;100950.09;5078636;28;19923;-70
2022/01/07 12:07:55;;;;;;;;;;;;;;;7.07;69.69;100939.91;5078563;28;19973;-69
2022/01/07 12:10:21;;;;;;;;;;;;;;;7.05;70.29;100942.91;5072185;28;19924;-68
2022/01/07 12:12:46;;;;;;;;;;;;;;;7.05;69.86;100945.66;5086809;28;19920;-70
2022/01/07 12:15:11;;;;;;;;;;;;;;;7.04;70.48;100956.94;5088894;28;19959;-70
2022/01/07 12:17:36;;;;;;;;;;;;;;;7.04;70.15;100960.53;5094511;28;19935;-69
2022/01/07 12:20:21;;;;;;;;;;;;;;;7.04;69.71;100945.91;5084890;28;19920;-72
2022/01/07 12:22:47;;;;;;;;;;;;;;;6.97;70.25;100945.97;5081298;28;19928;-70
2022/01/07 12:25:12;;;;;;;;;;;;;;;6.94;70.04;100956.59;5082731;28;20272;-70
2022/01/07 12:27:38;;;;;;;;;;;;;;;6.92;70.37;100948.56;5093227;28;19927;-72
2022/01/07 12:30:03;;;;;;;;;;;;;;;6.92;70.02;100940.28;5084540;28;20399;-71
2022/01/07 12:32:33;;;;;;;;;;;;;;;6.92;70.03;100943.03;5084123;28;19927;-74
2022/01/07 12:34:58;;;;;;;;;;;;;;;6.94;70.02;100929.84;5090044;28;19920;-69
2022/01/07 12:37:27;;;;;;;;;;;;;;;6.93;69.80;100928.16;5078363;28;19947;-68
2022/01/07 12:39:54;;;;;;;;;;;;;;;6.94;70.14;100920.72;5088709;28;20058;-68
2022/01/07 12:42:19;;;;;;;;;;;;;;;6.96;70.60;100924.13;5083550;28;19973;-67
2022/01/07 12:44:46;;;;;;;;;;;;;;;6.95;70.27;100919.66;5086784;28;19924;-68
2022/01/07 12:47:15;;;;;;;;;;;;;;;6.95;70.07;100906.69;5089761;28;19928;-66
2022/01/07 12:49:40;;;;;;;;;;;;;;;6.95;70.57;100909.44;5082840;28;19959;-67
2022/01/07 12:52:07;;;;;;;;;;;;;;;6.93;70.03;100899.75;5087740;28;20021;-67